createdAt,value
2023-03-10T00:04:57.340Z,2.03
2023-03-10T00:09:58.869Z,0.38
2023-03-10T00:15:00.300Z,0.28
2023-03-10T00:20:02.566Z,1.40
2023-03-10T00:25:04.398Z,0.50
2023-03-10T00:30:06.464Z,1.75
2023-03-10T00:35:08.193Z,2.75
2023-03-10T00:40:11.487Z,3.30
2023-03-10T00:45:13.246Z,1.17
2023-03-10T00:50:15.325Z,2.50
2023-03-10T00:55:17.006Z,0.93
2023-03-10T01:00:18.936Z,1.65
2023-03-10T01:05:20.438Z,2.38
2023-03-10T01:10:21.917Z,1.20
2023-03-10T01:15:23.542Z,1.02
2023-03-10T01:20:25.044Z,3.25
2023-03-10T01:25:28.247Z,2.15
2023-03-10T01:30:29.683Z,4.20
2023-03-10T01:35:31.292Z,1.27
2023-03-10T01:40:33.058Z,2.65
2023-03-10T01:45:34.484Z,2.65
2023-03-10T01:50:37.719Z,1.65
2023-03-10T01:55:43.906Z,2.60
2023-03-10T02:00:45.556Z,1.83
2023-03-10T02:06:11.529Z,3.20
2023-03-10T02:11:14.712Z,4.40
2023-03-10T02:16:17.285Z,2.25
2023-03-10T02:21:44.410Z,1.13
2023-03-10T02:27:01.415Z,1.30
2023-03-10T02:32:03.395Z,2.15
2023-03-10T02:37:05.011Z,1.10
2023-03-10T02:42:06.627Z,0.60
2023-03-10T02:47:08.114Z,1.10
2023-03-10T02:52:24.150Z,0.63
2023-03-10T02:57:25.668Z,0.85
2023-03-10T03:02:27.197Z,2.08
2023-03-10T03:07:28.811Z,3.60
2023-03-10T03:12:30.333Z,0.75
2023-03-10T03:17:32.057Z,0.63
2023-03-10T03:22:33.460Z,1.65
2023-03-10T03:27:35.239Z,2.78
2023-03-10T03:32:37.322Z,1.42
2023-03-10T03:37:39.174Z,0.85
2023-03-10T03:42:46.314Z,0.80
2023-03-10T03:47:48.014Z,1.83
2023-03-10T03:52:50.286Z,1.92
2023-03-10T03:57:52.482Z,1.08
2023-03-10T04:02:54.002Z,5.93
2023-03-10T04:07:55.658Z,1.75
2023-03-10T04:12:57.522Z,3.20
2023-03-10T04:18:00.413Z,2.47
2023-03-10T04:23:02.230Z,1.65
2023-03-10T04:28:03.801Z,5.80
2023-03-10T04:33:05.237Z,3.10
2023-03-10T04:38:06.879Z,1.77
2023-03-10T04:43:08.336Z,3.20
2023-03-10T04:48:09.812Z,1.10
2023-03-10T04:53:11.294Z,2.22
2023-03-10T04:58:13.419Z,6.13
2023-03-10T05:03:15.726Z,1.48
2023-03-10T05:08:17.522Z,2.25
2023-03-10T05:13:19.133Z,1.25
2023-03-10T05:18:20.686Z,2.35
2023-03-10T05:23:24.494Z,4.82
2023-03-10T05:28:26.004Z,7.00
2023-03-10T05:33:29.564Z,4.53
2023-03-10T05:38:32.948Z,3.60
2023-03-10T05:43:35.370Z,3.85
2023-03-10T05:48:36.912Z,3.03
2023-03-10T05:53:39.525Z,1.75
2023-03-10T05:58:41.518Z,4.13
2023-03-10T06:03:46.442Z,2.38
2023-03-10T06:08:47.980Z,2.00
2023-03-10T06:13:49.697Z,3.00
2023-03-10T06:18:57.828Z,0.70
2023-03-10T06:24:00.467Z,0.80
2023-03-10T06:29:02.029Z,0.85
2023-03-10T06:34:04.637Z,2.55
2023-03-10T06:39:07.229Z,3.63
2023-03-10T06:44:08.775Z,0.85
2023-03-10T06:49:10.230Z,1.58
2023-03-10T06:54:11.719Z,0.73
2023-03-10T06:59:13.575Z,0.35
2023-03-10T07:04:15.278Z,2.53
2023-03-10T07:09:16.885Z,4.60
2023-03-10T07:14:18.474Z,2.25
2023-03-10T07:19:19.965Z,1.48
2023-03-10T07:24:21.949Z,5.18
2023-03-10T07:29:23.540Z,2.70
2023-03-10T07:34:25.117Z,4.38
2023-03-10T07:39:26.655Z,0.50
2023-03-10T07:44:28.195Z,1.35
2023-03-10T07:49:32.218Z,2.42
2023-03-10T07:54:33.694Z,3.95
2023-03-10T07:59:35.644Z,4.35
2023-03-10T08:04:37.200Z,5.07
2023-03-10T08:09:39.427Z,6.07
2023-03-10T08:14:41.525Z,4.65
2023-03-10T08:19:43.890Z,4.95
2023-03-10T08:24:45.608Z,5.88
2023-03-10T08:29:47.230Z,6.53
2023-03-10T08:34:48.740Z,11.32
2023-03-10T08:39:52.956Z,3.63
2023-03-10T08:44:56.057Z,3.28
2023-03-10T08:49:57.807Z,4.03
2023-03-10T08:54:59.996Z,3.55
2023-03-10T09:00:02.215Z,6.00
2023-03-10T09:05:04.118Z,3.22
2023-03-10T09:10:05.950Z,3.03
2023-03-10T09:15:08.419Z,9.77
2023-03-10T09:20:10.524Z,8.75
2023-03-10T09:25:12.016Z,12.90
2023-03-10T09:30:15.347Z,5.22
2023-03-10T09:35:17.075Z,4.45
2023-03-10T09:40:20.675Z,7.03
2023-03-10T09:45:47.952Z,3.78
2023-03-10T09:50:52.469Z,4.20
2023-03-10T09:55:54.021Z,2.55
2023-03-10T10:00:55.495Z,5.53
2023-03-10T10:05:59.254Z,6.03
2023-03-10T10:11:02.915Z,1.30
2023-03-10T10:16:47.870Z,7.10
2023-03-10T10:22:14.020Z,8.30
2023-03-10T10:27:18.326Z,9.45
2023-03-10T10:32:21.038Z,8.35
2023-03-10T10:37:36.542Z,4.53
2023-03-10T10:42:51.537Z,2.40
2023-03-10T10:47:57.759Z,6.10
2023-03-10T10:53:26.653Z,5.35
2023-03-10T10:58:29.829Z,7.28
2023-03-10T11:03:35.511Z,7.95
2023-03-10T11:08:39.409Z,7.97
2023-03-10T11:13:40.904Z,4.30
2023-03-10T11:18:56.570Z,5.35
2023-03-10T11:24:25.906Z,5.13
2023-03-10T11:29:49.827Z,6.50
2023-03-10T11:34:55.864Z,9.27
2023-03-10T11:40:16.388Z,8.50
2023-03-10T11:50:59.184Z,9.48
2023-03-10T11:56:02.835Z,5.47
2023-03-10T12:01:05.882Z,5.35
2023-03-10T12:06:19.726Z,4.97
2023-03-10T12:11:25.432Z,2.42
2023-03-10T12:16:31.344Z,3.03
2023-03-10T12:21:33.702Z,3.38
2023-03-10T12:26:39.434Z,5.05
2023-03-10T12:31:41.346Z,4.93
2023-03-10T12:36:46.607Z,3.65
2023-03-10T12:41:53.318Z,3.05
2023-03-10T12:47:21.755Z,2.67
2023-03-10T12:52:44.884Z,1.45
2023-03-10T12:57:52.765Z,2.58
2023-03-10T13:03:16.992Z,1.42
2023-03-10T13:08:24.695Z,0.68
2023-03-10T13:13:34.173Z,2.55
2023-03-10T13:18:35.874Z,0.68
2023-03-10T13:23:37.610Z,2.17
2023-03-10T13:28:39.139Z,0.15
2023-03-10T13:33:52.713Z,1.58
2023-03-10T13:38:56.466Z,1.17
2023-03-10T13:43:58.146Z,0.40
2023-03-10T13:49:04.056Z,0.55
2023-03-10T13:54:22.174Z,1.40
2023-03-10T13:59:27.321Z,1.00
2023-03-10T14:04:41.073Z,1.38
2023-03-10T14:09:42.645Z,1.90
2023-03-10T14:14:44.669Z,1.15
2023-03-10T14:19:48.735Z,2.05
2023-03-10T14:24:51.016Z,2.05
2023-03-10T14:29:55.456Z,0.70
2023-03-10T14:34:56.923Z,1.23
2023-03-10T14:39:58.345Z,1.58
2023-03-10T14:45:06.266Z,0.20
2023-03-10T14:50:14.304Z,0.60
2023-03-10T14:55:19.501Z,1.13
2023-03-10T15:00:22.081Z,1.45
2023-03-10T15:05:34.619Z,2.55
2023-03-10T15:10:47.380Z,1.10
2023-03-10T15:15:50.119Z,4.35
2023-03-10T15:20:52.062Z,1.90
2023-03-10T15:25:54.910Z,2.05
2023-03-10T15:30:56.486Z,1.02
2023-03-10T15:35:58.066Z,1.70
2023-03-10T15:41:01.064Z,5.57
2023-03-10T15:46:07.140Z,2.28
2023-03-10T15:51:10.738Z,1.45
2023-03-10T15:56:13.117Z,2.88
2023-03-10T16:01:18.703Z,2.67
2023-03-10T16:06:24.873Z,4.55
2023-03-10T16:11:26.561Z,3.78
2023-03-10T16:16:28.606Z,2.92
2023-03-10T16:21:30.257Z,7.53
2023-03-10T16:26:31.749Z,5.13
2023-03-10T16:31:33.532Z,6.88
2023-03-10T16:36:36.897Z,10.50
2023-03-10T16:41:41.874Z,4.20
2023-03-10T16:46:43.467Z,6.35
2023-03-10T16:51:47.593Z,3.75
2023-03-10T16:56:51.511Z,5.00
2023-03-10T17:01:53.482Z,3.78
2023-03-10T17:06:55.654Z,3.47
2023-03-10T17:11:57.256Z,5.85
2023-03-10T17:16:58.822Z,4.72
2023-03-10T17:22:00.342Z,6.38
2023-03-10T17:27:02.403Z,2.28
2023-03-10T17:32:04.287Z,2.63
2023-03-10T17:37:09.166Z,2.85
2023-03-10T17:42:10.622Z,4.13
2023-03-10T17:47:12.271Z,3.03
2023-03-10T17:52:13.816Z,1.17
2023-03-10T17:57:16.016Z,5.13
2023-03-10T18:02:18.147Z,8.88
2023-03-10T18:07:19.690Z,1.90
2023-03-10T18:12:21.185Z,4.57
2023-03-10T18:17:22.648Z,7.18
2023-03-10T18:22:24.104Z,1.63
2023-03-10T18:27:25.574Z,3.55
2023-03-10T18:32:29.469Z,2.70
2023-03-10T18:37:35.152Z,3.47
2023-03-10T18:42:36.664Z,2.33
2023-03-10T18:47:38.093Z,3.83
2023-03-10T18:52:42.911Z,5.13
2023-03-10T18:57:44.905Z,1.98
2023-03-10T19:02:46.856Z,1.83
2023-03-10T19:07:48.787Z,2.60
2023-03-10T19:12:50.218Z,5.00
2023-03-10T19:17:51.635Z,8.30
2023-03-10T19:22:53.517Z,3.67
2023-03-10T19:27:55.005Z,1.35
2023-03-10T19:32:57.181Z,0.50
2023-03-10T19:37:58.894Z,0.52
2023-03-10T19:43:00.366Z,0.40
2023-03-10T19:48:02.196Z,0.47
2023-03-10T19:53:04.199Z,0.70
2023-03-10T19:58:05.659Z,0.55
2023-03-10T20:03:07.124Z,0.50
2023-03-10T20:08:09.131Z,1.15
2023-03-10T20:13:10.843Z,0.50
2023-03-10T20:18:12.306Z,0.75
2023-03-10T20:23:15.194Z,0.90
2023-03-10T20:28:18.254Z,1.42
2023-03-10T20:33:23.051Z,0.40
2023-03-10T20:38:24.509Z,1.58
2023-03-10T20:43:27.454Z,1.80
2023-03-10T20:48:29.458Z,0.60
2023-03-10T20:53:33.328Z,2.65
2023-03-10T20:58:34.952Z,0.77
2023-03-10T21:03:38.260Z,0.93
2023-03-10T21:08:39.709Z,0.70
2023-03-10T21:13:41.285Z,2.55
2023-03-10T21:18:42.734Z,0.70
2023-03-10T21:23:45.195Z,0.68
2023-03-10T21:28:48.423Z,0.80
2023-03-10T21:33:50.489Z,1.75
2023-03-10T21:38:52.773Z,1.00
2023-03-10T21:43:57.726Z,0.82
2023-03-10T21:48:59.661Z,0.77
2023-03-10T21:54:03.002Z,1.75
2023-03-10T21:59:05.514Z,0.93
2023-03-10T22:04:06.918Z,0.93
2023-03-10T22:09:08.287Z,3.17
2023-03-10T22:14:12.527Z,1.23
2023-03-10T22:19:13.909Z,1.40
2023-03-10T22:24:15.298Z,1.17
2023-03-10T22:29:17.197Z,1.50
2023-03-10T22:34:20.198Z,1.98
2023-03-10T22:39:23.479Z,2.38
2023-03-10T22:44:25.005Z,1.73
2023-03-10T22:49:26.475Z,1.30
2023-03-10T22:54:28.519Z,1.10
2023-03-10T22:59:30.427Z,1.08
2023-03-10T23:04:35.890Z,1.25
2023-03-10T23:09:37.392Z,1.48
2023-03-10T23:14:38.889Z,0.85
2023-03-10T23:19:41.267Z,5.07
2023-03-10T23:24:43.150Z,2.75
2023-03-10T23:29:45.367Z,2.88
2023-03-10T23:34:47.440Z,2.50
2023-03-10T23:39:49.694Z,1.30
2023-03-10T23:44:51.953Z,1.60
2023-03-10T23:49:55.682Z,1.92
2023-03-10T23:54:57.223Z,3.08
2023-03-10T23:59:59.188Z,2.78
